createdAt,value
2023-02-24T00:00:00.558Z,77
2023-02-24T00:15:00.578Z,77
2023-02-24T00:30:00.629Z,78
2023-02-24T00:45:00.577Z,78
2023-02-24T01:00:00.596Z,78
2023-02-24T01:15:00.583Z,78
2023-02-24T01:30:00.694Z,78
2023-02-24T01:45:00.699Z,78
2023-02-24T02:00:00.592Z,79
2023-02-24T02:15:00.579Z,79
2023-02-24T02:30:00.661Z,79
2023-02-24T02:45:00.573Z,79
2023-02-24T03:00:00.593Z,79
2023-02-24T03:15:00.626Z,80
2023-02-24T03:30:00.583Z,80
2023-02-24T03:45:00.608Z,80
2023-02-24T04:00:00.586Z,80
2023-02-24T04:15:00.593Z,80
2023-02-24T04:30:00.660Z,80
2023-02-24T04:45:00.569Z,80
2023-02-24T05:00:00.567Z,81
2023-02-24T05:15:00.575Z,81
2023-02-24T05:30:00.649Z,80
2023-02-24T05:45:00.575Z,80
2023-02-24T06:00:00.613Z,81
2023-02-24T06:15:00.595Z,80
2023-02-24T06:30:00.637Z,81
2023-02-24T06:45:00.571Z,80
2023-02-24T07:00:00.571Z,81
2023-02-24T07:15:00.534Z,81
2023-02-24T07:30:00.646Z,82
2023-02-24T07:45:00.661Z,82
2023-02-24T08:00:00.570Z,82
2023-02-24T08:15:00.561Z,82
2023-02-24T08:30:00.594Z,83
2023-02-24T08:45:00.662Z,82
2023-02-24T09:00:00.580Z,80
2023-02-24T09:15:00.604Z,79
2023-02-24T09:30:00.529Z,76
2023-02-24T09:45:00.571Z,74
2023-02-24T10:00:00.605Z,71
2023-02-24T10:15:00.874Z,68
2023-02-24T10:30:00.567Z,64
2023-02-24T10:45:03.306Z,64
2023-02-24T11:00:00.595Z,62
2023-02-24T11:15:00.634Z,60
2023-02-24T11:30:00.934Z,58
2023-02-24T11:45:00.694Z,59
2023-02-24T12:00:00.574Z,59
2023-02-24T12:15:00.627Z,57
2023-02-24T12:30:00.587Z,56
2023-02-24T12:45:00.572Z,57
2023-02-24T13:00:00.592Z,56
2023-02-24T13:15:00.587Z,56
2023-02-24T13:30:00.631Z,53
2023-02-24T13:45:00.603Z,51
2023-02-24T14:00:00.571Z,52
2023-02-24T14:15:00.654Z,51
2023-02-24T14:30:00.576Z,51
2023-02-24T14:45:00.551Z,52
2023-02-24T15:00:00.584Z,52
2023-02-24T15:15:00.641Z,51
2023-02-24T15:30:00.571Z,52
2023-02-24T15:45:00.903Z,52
2023-02-24T16:00:00.580Z,52
2023-02-24T16:15:00.764Z,52
2023-02-24T16:30:00.618Z,53
2023-02-24T16:45:00.551Z,53
2023-02-24T17:00:00.876Z,54
2023-02-24T17:15:00.599Z,54
2023-02-24T17:30:00.564Z,55
2023-02-24T17:45:00.564Z,56
2023-02-24T18:00:00.569Z,57
2023-02-24T18:15:09.570Z,58
2023-02-24T18:30:00.571Z,60
2023-02-24T18:45:00.520Z,61
2023-02-24T19:00:00.572Z,62
2023-02-24T19:15:00.606Z,63
2023-02-24T19:30:00.552Z,64
2023-02-24T19:45:00.572Z,63
2023-02-24T20:00:00.565Z,64
2023-02-24T20:15:00.626Z,64
2023-02-24T20:30:00.581Z,65
2023-02-24T20:45:00.529Z,65
2023-02-24T21:00:04.186Z,66
2023-02-24T21:15:00.569Z,69
2023-02-24T21:30:00.539Z,70
2023-02-24T21:45:00.529Z,70
2023-02-24T22:00:00.534Z,69
2023-02-24T22:15:00.603Z,69
2023-02-24T22:30:00.532Z,69
2023-02-24T22:45:00.593Z,68
2023-02-24T23:00:00.677Z,69
2023-02-24T23:15:00.599Z,69
2023-02-24T23:30:00.505Z,69
2023-02-24T23:45:00.530Z,69
